Time;durP1;ratioP1;P1;durP2;ratioP2;P2;SDS_P1;SDS_P2;PMS_P1;PMS_P2;Temp;Humidity;BMP_temperature;BMP_pressure;BME280_temperature;BME280_humidity;BME280_pressure;Samples;Min_cycle;Max_cycle;Signal;HPM_P1;HPM_P2
2022/08/20 00:01:04;;;;;;;;;;;;;;;13.27;100.00;99567.97;6304302;22;20380;-88
2022/08/20 00:03:33;;;;;;;;;;;;;;;13.43;100.00;99562.66;6304781;22;20299;-88
2022/08/20 00:06:04;;;;;;;;;;;;;;;13.29;100.00;99567.91;6305520;22;19915;-85
2022/08/20 00:08:29;;;;;;;;;;;;;;;13.40;100.00;99560.19;6305302;22;19922;-85
2022/08/20 00:10:56;;;;;;;;;;;;;;;13.31;100.00;99556.22;6304080;22;19911;-84
2022/08/20 00:13:26;;;;;;;;;;;;;;;13.47;100.00;99568.69;6305806;22;19938;-85
2022/08/20 00:15:51;;;;;;;;;;;;;;;13.33;100.00;99569.47;6304800;22;19960;-85
2022/08/20 00:18:17;;;;;;;;;;;;;;;13.46;100.00;99569.63;6306245;22;19915;-84
2022/08/20 00:20:45;;;;;;;;;;;;;;;13.31;100.00;99566.03;6304646;22;19918;-84
2022/08/20 00:23:10;;;;;;;;;;;;;;;13.45;100.00;99574.09;6305775;22;19950;-85
2022/08/20 03:27:24;;;;;;;;;;;;;;;12.64;100.00;99635.31;6216181;22;19929;-89
2022/08/20 03:29:49;;;;;;;;;;;;;;;12.78;100.00;99642.53;6279440;22;19950;-88
2022/08/20 03:32:15;;;;;;;;;;;;;;;12.67;100.00;99645.78;6306779;22;19915;-89
2022/08/20 03:34:40;;;;;;;;;;;;;;;12.86;100.00;99654.47;6306664;22;19918;-87
2022/08/20 03:37:05;;;;;;;;;;;;;;;12.75;100.00;99654.19;6279948;22;19911;-88
2022/08/20 03:39:30;;;;;;;;;;;;;;;12.95;100.00;99652.25;6306484;22;20385;-88
2022/08/20 03:41:56;;;;;;;;;;;;;;;12.81;100.00;99653.88;6277578;22;20330;-87
2022/08/20 03:44:21;;;;;;;;;;;;;;;12.97;100.00;99648.59;6306620;22;20215;-87
2022/08/20 03:46:47;;;;;;;;;;;;;;;12.85;100.00;99650.09;6306561;22;19915;-88
2022/08/20 03:49:12;;;;;;;;;;;;;;;13.01;100.00;99654.59;6306632;22;20048;-87
2022/08/20 03:51:37;;;;;;;;;;;;;;;12.84;100.00;99656.38;6279369;22;19922;-86
2022/08/20 03:54:03;;;;;;;;;;;;;;;13.01;100.00;99657.25;6279262;22;19911;-86
2022/08/20 03:56:28;;;;;;;;;;;;;;;12.88;100.00;99659.72;6304970;22;20245;-88
2022/08/20 03:58:53;;;;;;;;;;;;;;;13.06;100.00;99653.38;6306508;22;20046;-87
2022/08/20 04:01:19;;;;;;;;;;;;;;;12.92;100.00;99655.06;6279178;22;20392;-87
2022/08/20 04:03:44;;;;;;;;;;;;;;;13.07;100.00;99654.25;6279184;22;20326;-86
2022/08/20 04:06:09;;;;;;;;;;;;;;;12.93;100.00;99654.16;6279165;22;19914;-86
2022/08/20 04:08:38;;;;;;;;;;;;;;;13.09;100.00;99657.66;6306438;22;19918;-88
2022/08/20 04:11:03;;;;;;;;;;;;;;;12.97;100.00;99653.03;6304873;22;19943;-87
2022/08/20 04:13:29;;;;;;;;;;;;;;;13.09;100.00;99644.38;6306430;22;19983;-87
2022/08/20 04:15:54;;;;;;;;;;;;;;;12.95;100.00;99652.25;6306650;22;19915;-87
2022/08/20 04:18:21;;;;;;;;;;;;;;;13.10;100.00;99648.75;6279563;22;19915;-86
2022/08/20 04:20:47;;;;;;;;;;;;;;;12.97;100.00;99648.59;6306334;22;19911;-86
2022/08/20 04:23:13;;;;;;;;;;;;;;;13.13;100.00;99651.25;6306308;22;20047;-86
2022/08/20 04:25:42;;;;;;;;;;;;;;;13.00;100.00;99651.06;6304770;22;19911;-87
2022/08/20 04:28:11;;;;;;;;;;;;;;;13.12;100.00;99654.84;6248153;22;19921;-86
2022/08/20 04:30:37;;;;;;;;;;;;;;;13.02;100.00;99650.97;6120769;23;20311;-88
2022/08/20 04:33:04;;;;;;;;;;;;;;;13.17;100.00;99655.44;6122340;23;19940;-86
2022/08/20 04:35:32;;;;;;;;;;;;;;;13.06;100.00;99664.00;6122110;23;19944;-86
2022/08/20 04:44:15;;;;;;;;;;;;;;;;;;;;;
2022/08/20 07:35:01;;;;;;;;;;;;;;;;;;;;;
2022/08/20 07:37:33;;;;;;;;;;;;;;;13.25;100.00;99733.03;6245775;23;20265;-88
2022/08/20 07:42:59;;;;;;;;;;;;;;;;;;;;;
2022/08/20 07:45:30;;;;;;;;;;;;;;;13.08;100.00;99741.94;6234697;23;20505;-87
2022/08/20 07:48:05;;;;;;;;;;;;;;;13.22;100.00;99750.97;6245056;23;19939;-92
2022/08/20 07:50:32;;;;;;;;;;;;;;;13.06;100.00;99750.94;6243725;23;20291;-93
2022/08/20 07:53:27;;;;;;;;;;;;;;;13.20;100.00;99745.72;6245914;23;19913;-92
2022/08/20 07:56:03;;;;;;;;;;;;;;;;;;;;;
2022/08/20 07:58:29;;;;;;;;;;;;;;;13.22;100.00;99746.50;6246157;23;20003;-91
2022/08/20 08:00:57;;;;;;;;;;;;;;;13.17;100.00;99755.69;6246563;23;19935;-93
2022/08/20 08:03:26;;;;;;;;;;;;;;;13.28;100.00;99753.28;6247529;23;20366;-93
2022/08/20 08:06:23;;;;;;;;;;;;;;;13.18;100.00;99755.59;6245758;23;20270;-93
2022/08/20 08:08:51;;;;;;;;;;;;;;;13.20;100.00;99756.38;6245780;23;19911;-88
2022/08/20 08:11:40;;;;;;;;;;;;;;;13.26;100.00;99753.38;6246158;23;19979;-92
2022/08/20 08:14:15;;;;;;;;;;;;;;;13.18;100.00;99749.41;6245495;23;19908;-89
2022/08/20 08:16:44;;;;;;;;;;;;;;;13.24;100.00;99754.41;6245998;23;20247;-93
2022/08/20 08:19:37;;;;;;;;;;;;;;;13.11;100.00;99758.66;6246930;23;19915;-93
2022/08/20 08:22:12;;;;;;;;;;;;;;;13.24;100.00;99754.41;6248086;23;19911;-91
2022/08/20 08:24:48;;;;;;;;;;;;;;;13.16;100.00;99754.84;6245926;23;19916;-93
2022/08/20 08:27:17;;;;;;;;;;;;;;;13.28;100.00;99755.97;6247072;23;19916;-93
2022/08/20 08:29:55;;;;;;;;;;;;;;;13.13;100.00;99747.03;6246096;23;19911;-91
2022/08/20 08:32:23;;;;;;;;;;;;;;;13.26;100.00;99750.72;6247266;23;19918;-92
2022/08/20 08:34:48;;;;;;;;;;;;;;;13.14;100.00;99750.53;6247358;23;19916;-92
2022/08/20 08:37:16;;;;;;;;;;;;;;;13.11;100.00;99754.19;6245989;23;19912;-93
2022/08/20 08:40:11;;;;;;;;;;;;;;;;;;;;;
2022/08/20 08:42:55;;;;;;;;;;;;;;;;;;;;;
2022/08/20 08:45:26;;;;;;;;;;;;;;;13.14;100.00;99756.69;6245761;23;19998;-88
2022/08/20 08:48:05;;;;;;;;;;;;;;;;;;;;;
2022/08/20 08:50:38;;;;;;;;;;;;;;;13.06;100.00;99753.59;6246092;23;20002;-93
2022/08/20 08:55:58;;;;;;;;;;;;;;;12.93;100.00;99753.41;6223471;23;19954;-91
2022/08/20 08:58:23;;;;;;;;;;;;;;;13.06;100.00;99765.09;6245288;23;20323;-90
2022/08/20 09:00:48;;;;;;;;;;;;;;;12.97;100.00;99754.06;6245816;23;19965;-91
2022/08/20 09:03:21;;;;;;;;;;;;;;;13.09;100.00;99764.06;6245046;23;19947;-92
2022/08/20 09:06:22;;;;;;;;;;;;;;;;;;;;;
2022/08/20 09:08:55;;;;;;;;;;;;;;;12.96;100.00;99771.84;6245048;23;19978;-92
2022/08/20 09:11:42;;;;;;;;;;;;;;;;;;;;;
2022/08/20 09:14:10;;;;;;;;;;;;;;;12.99;100.00;99776.16;6244669;23;20324;-89
2022/08/20 09:16:35;;;;;;;;;;;;;;;12.85;100.00;99771.56;6243123;23;19911;-90
2022/08/20 09:19:03;;;;;;;;;;;;;;;12.98;100.00;99769.94;6245830;23;19970;-91
2022/08/20 09:22:09;;;;;;;;;;;;;;;12.87;100.00;99770.50;6246847;23;19965;-90
2022/08/20 09:24:36;;;;;;;;;;;;;;;12.78;100.00;99770.16;6152319;23;20395;-93
2022/08/20 09:27:20;;;;;;;;;;;;;;;12.98;100.00;99777.09;6245512;23;19930;-89
2022/08/20 09:30:33;;;;;;;;;;;;;;;;;;;;;
2022/08/20 09:33:08;;;;;;;;;;;;;;;12.81;100.00;99776.19;6237541;23;19966;-93
2022/08/20 09:35:44;;;;;;;;;;;;;;;12.93;100.00;99772.00;6246203;23;19922;-93
2022/08/20 09:41:09;;;;;;;;;;;;;;;12.81;100.00;99773.53;6229775;23;19962;-90
2022/08/20 09:43:40;;;;;;;;;;;;;;;13.01;100.00;99771.59;6246465;23;19916;-88
2022/08/20 09:46:14;;;;;;;;;;;;;;;12.86;100.00;99773.25;6244934;23;19959;-90
2022/08/20 09:48:41;;;;;;;;;;;;;;;13.10;100.00;99771.13;6246369;23;20377;-90
2022/08/20 09:51:07;;;;;;;;;;;;;;;12.88;100.00;99768.75;6246156;23;19951;-91
2022/08/20 09:53:33;;;;;;;;;;;;;;;12.98;100.00;99769.94;6246240;23;19915;-92
2022/08/20 09:56:01;;;;;;;;;;;;;;;12.96;100.00;99773.66;6244741;23;19915;-90
2022/08/20 09:58:39;;;;;;;;;;;;;;;;;;;;;
2022/08/20 10:01:16;;;;;;;;;;;;;;;13.05;100.00;99778.47;6246321;23;20407;-86
2022/08/20 10:03:43;;;;;;;;;;;;;;;12.90;100.00;99775.69;6245763;23;19912;-88
2022/08/20 10:06:09;;;;;;;;;;;;;;;13.06;100.00;99769.56;6244486;23;19943;-88
2022/08/20 10:08:35;;;;;;;;;;;;;;;13.01;100.00;99771.59;6245913;23;19938;-87
2022/08/20 10:11:00;;;;;;;;;;;;;;;13.08;100.00;99767.66;6242985;23;19911;-86
2022/08/20 10:13:33;;;;;;;;;;;;;;;13.00;100.00;99776.06;6244487;23;19911;-86
2022/08/20 10:15:58;;;;;;;;;;;;;;;13.00;100.00;99760.13;6245799;23;19924;-90
2022/08/20 10:18:26;;;;;;;;;;;;;;;12.99;100.00;99752.22;6244410;23;20126;-86
2022/08/20 10:20:59;;;;;;;;;;;;;;;13.01;100.00;99760.97;6244303;23;19911;-90
2022/08/20 10:23:27;;;;;;;;;;;;;;;13.15;100.00;99760.25;6244619;23;19923;-91
2022/08/20 10:26:08;;;;;;;;;;;;;;;;;;;;;
2022/08/20 10:28:34;;;;;;;;;;;;;;;13.09;100.00;99766.72;6244289;23;19986;-89
2022/08/20 10:31:07;;;;;;;;;;;;;;;12.94;100.00;99770.19;6245795;23;19942;-93
2022/08/20 10:36:59;;;;;;;;;;;;;;;;;;;;;
2022/08/20 10:39:47;;;;;;;;;;;;;;;12.96;100.00;99773.66;6244541;23;19987;-89
2022/08/20 10:42:12;;;;;;;;;;;;;;;13.16;100.00;99770.78;6245799;23;19943;-89
2022/08/20 10:44:40;;;;;;;;;;;;;;;13.07;100.00;99765.97;6245903;23;20254;-90
2022/08/20 10:53:42;;;;;;;;;;;;;;;13.19;100.00;99756.44;6188058;23;19919;-94
2022/08/20 10:56:25;;;;;;;;;;;;;;;13.09;100.00;99750.78;6242688;23;19943;-93
2022/08/20 10:58:58;;;;;;;;;;;;;;;13.19;100.00;99754.63;6244630;23;19915;-92
2022/08/20 11:01:34;;;;;;;;;;;;;;;13.17;100.00;99767.16;6244009;23;19974;-93
2022/08/20 11:04:10;;;;;;;;;;;;;;;13.11;100.00;99767.50;6245225;23;20350;-90
2022/08/20 11:06:48;;;;;;;;;;;;;;;;;;;;;
2022/08/20 11:09:16;;;;;;;;;;;;;;;13.05;100.00;99746.53;6244554;23;20544;-90
2022/08/20 11:17:50;;;;;;;;;;;;;;;13.28;100.00;99755.97;6111702;23;19913;-94
2022/08/20 11:20:54;;;;;;;;;;;;;;;;;;;;;
2022/08/20 11:23:59;;;;;;;;;;;;;;;;;;;;;
2022/08/20 11:26:58;;;;;;;;;;;;;;;;;;;;;
2022/08/20 11:29:35;;;;;;;;;;;;;;;13.20;100.00;99751.03;6242386;22;20385;-87
2022/08/20 11:32:10;;;;;;;;;;;;;;;;;;;;;
2022/08/20 11:43:44;;;;;;;;;;;;;;;13.18;100.00;99747.63;6189476;23;19981;-89
2022/08/20 11:46:12;;;;;;;;;;;;;;;13.25;100.00;99749.00;6211942;23;19912;-90
2022/08/20 11:49:10;;;;;;;;;;;;;;;;;;;;;
2022/08/20 11:51:46;;;;;;;;;;;;;;;13.06;100.00;99754.44;6285992;22;20001;-91
2022/08/20 11:55:02;;;;;;;;;;;;;;;;;;;;;
2022/08/20 11:57:23;;;;;;;;;;;;;;;13.15;100.00;99750.44;6295360;22;19918;-90
2022/08/20 12:03:42;;;;;;;;;;;;;;;13.15;100.00;99742.47;6137118;23;20396;-90
2022/08/20 12:09:05;;;;;;;;;;;;;;;;;;;;;
2022/08/20 12:11:50;;;;;;;;;;;;;;;;;;;;;
2022/08/20 12:14:26;;;;;;;;;;;;;;;;;;;;;
2022/08/20 12:16:59;;;;;;;;;;;;;;;13.16;100.00;99744.19;6306515;22;19994;-92
2022/08/20 12:19:46;;;;;;;;;;;;;;;;;;;;;
2022/08/20 12:22:14;;;;;;;;;;;;;;;13.24;100.00;99735.75;6306502;22;19974;-90
2022/08/20 12:24:39;;;;;;;;;;;;;;;13.08;100.00;99746.38;6278078;22;19911;-91
2022/08/20 12:30:17;;;;;;;;;;;;;;;;;;;;;
2022/08/20 12:32:51;;;;;;;;;;;;;;;13.29;100.00;99733.75;6306736;22;20401;-92
2022/08/20 12:36:04;;;;;;;;;;;;;;;;;;;;;
2022/08/20 12:38:34;;;;;;;;;;;;;;;13.11;100.00;99730.25;6300272;22;20329;-90
2022/08/20 12:41:31;;;;;;;;;;;;;;;13.19;100.00;99722.72;6305072;22;19915;-92
2022/08/20 12:44:09;;;;;;;;;;;;;;;;;;;;;
2022/08/20 12:47:05;;;;;;;;;;;;;;;;;;;;;
2022/08/20 12:49:30;;;;;;;;;;;;;;;13.11;100.00;99714.31;6306377;22;19990;-89
2022/08/20 12:52:17;;;;;;;;;;;;;;;;;;;;;
2022/08/20 12:54:53;;;;;;;;;;;;;;;;;;;;;
2022/08/20 12:57:31;;;;;;;;;;;;;;;13.21;100.00;99726.16;6308352;22;20025;-88
2022/08/20 13:00:23;;;;;;;;;;;;;;;;;;;;;
2022/08/20 13:03:06;;;;;;;;;;;;;;;13.16;100.00;99722.91;6308056;22;19993;-90
2022/08/20 13:05:35;;;;;;;;;;;;;;;13.27;100.00;99731.16;6281083;22;19922;-87
2022/08/20 13:08:03;;;;;;;;;;;;;;;13.14;100.00;99722.13;6307803;22;19990;-90
2022/08/20 13:10:53;;;;;;;;;;;;;;;13.13;100.00;99724.84;6306633;22;19914;-90
2022/08/20 13:13:46;;;;;;;;;;;;;;;;;;;;;
2022/08/20 13:16:14;;;;;;;;;;;;;;;13.06;100.00;99722.53;6308096;22;20394;-89
2022/08/20 13:18:42;;;;;;;;;;;;;;;13.21;100.00;99718.19;6280605;22;20234;-90
2022/08/20 13:21:26;;;;;;;;;;;;;;;;;;;;;
2022/08/20 13:24:09;;;;;;;;;;;;;;;13.19;100.00;99725.38;6307388;22;20002;-89
2022/08/20 13:26:55;;;;;;;;;;;;;;;;;;;;;
2022/08/20 13:29:47;;;;;;;;;;;;;;;13.06;100.00;99721.69;6277646;22;20394;-91
2022/08/20 13:32:15;;;;;;;;;;;;;;;13.14;100.00;99714.13;6280590;22;19911;-92
2022/08/20 13:34:41;;;;;;;;;;;;;;;13.05;100.00;99709.31;6280512;22;20294;-88
2022/08/20 13:37:19;;;;;;;;;;;;;;;13.14;100.00;99716.78;6280962;22;19938;-89
2022/08/20 13:39:48;;;;;;;;;;;;;;;13.15;100.00;99707.03;6279228;22;19967;-90
2022/08/20 13:42:24;;;;;;;;;;;;;;;13.00;100.00;99703.38;6308164;22;19907;-91
2022/08/20 13:44:59;;;;;;;;;;;;;;;13.13;100.00;99699.13;6280162;22;19911;-91
2022/08/20 13:47:29;;;;;;;;;;;;;;;12.94;100.00;99699.28;6307671;22;19911;-88
2022/08/20 13:50:49;;;;;;;;;;;;;;;13.19;100.00;99697.91;6307745;22;19917;-95
2022/08/20 13:53:11;;;;;;;;;;;;;;;13.18;100.00;99698.84;6266398;22;19915;-88
2022/08/20 13:58:29;;;;;;;;;;;;;;;13.05;100.00;99698.66;6308069;22;20013;-92
2022/08/20 14:00:57;;;;;;;;;;;;;;;12.98;100.00;99703.47;6307861;22;19911;-88
2022/08/20 14:03:25;;;;;;;;;;;;;;;12.97;100.00;99699.13;6307149;22;19941;-90
2022/08/20 14:05:55;;;;;;;;;;;;;;;12.99;100.00;99691.06;6307379;22;19911;-92
2022/08/20 14:08:25;;;;;;;;;;;;;;;13.00;100.00;99684.78;6307456;22;19922;-92
2022/08/20 14:11:01;;;;;;;;;;;;;;;13.05;100.00;99690.69;6305780;22;19911;-91
2022/08/20 14:16:14;;;;;;;;;;;;;;;13.11;100.00;99690.34;6281093;22;19915;-90
2022/08/20 14:18:49;;;;;;;;;;;;;;;13.11;100.00;99693.00;6307441;22;19910;-90
2022/08/20 14:21:23;;;;;;;;;;;;;;;13.17;100.00;99692.69;6307588;22;19975;-91
2022/08/20 14:24:24;;;;;;;;;;;;;;;13.07;100.00;99696.81;6307257;22;19911;-89
2022/08/20 14:26:45;;;;;;;;;;;;;;;13.21;100.00;99686.25;6302881;22;19911;-91
2022/08/20 14:29:22;;;;;;;;;;;;;;;;;;;;;
2022/08/20 14:31:53;;;;;;;;;;;;;;;13.10;100.00;99688.66;6307298;22;19997;-91
2022/08/20 14:34:20;;;;;;;;;;;;;;;13.03;100.00;99679.28;6307184;22;20258;-91
2022/08/20 14:39:49;;;;;;;;;;;;;;;13.11;100.00;99685.03;6257320;22;19918;-91
2022/08/20 14:42:14;;;;;;;;;;;;;;;12.94;100.00;99682.44;6307475;22;19918;-90
2022/08/20 14:44:50;;;;;;;;;;;;;;;;;;;;;
2022/08/20 14:47:22;;;;;;;;;;;;;;;12.95;100.00;99681.50;6307322;22;20006;-91
2022/08/20 14:52:53;;;;;;;;;;;;;;;13.18;100.00;99677.56;6285513;22;19915;-89
2022/08/20 14:55:20;;;;;;;;;;;;;;;12.90;100.00;99668.47;6305422;22;19922;-90
2022/08/20 14:57:45;;;;;;;;;;;;;;;13.05;100.00;99672.06;6279921;22;19918;-90
2022/08/20 15:00:16;;;;;;;;;;;;;;;12.89;100.00;99666.72;6306860;22;19911;-91
2022/08/20 15:02:54;;;;;;;;;;;;;;;;;;;;;
2022/08/20 15:05:22;;;;;;;;;;;;;;;12.95;100.00;99665.56;6300769;22;19997;-89
2022/08/20 15:07:54;;;;;;;;;;;;;;;13.10;100.00;99664.72;6306846;22;19943;-91
2022/08/20 15:10:41;;;;;;;;;;;;;;;;;;;;;
2022/08/20 15:13:19;;;;;;;;;;;;;;;13.03;100.00;99664.19;6307337;22;20310;-95
2022/08/20 15:16:23;;;;;;;;;;;;;;;13.04;100.00;99667.72;6306956;22;19911;-89
2022/08/20 15:18:49;;;;;;;;;;;;;;;12.97;100.00;99666.31;6306186;22;19911;-89
2022/08/20 15:21:25;;;;;;;;;;;;;;;;;;;;;
2022/08/20 15:23:52;;;;;;;;;;;;;;;13.06;100.00;99665.81;6304674;22;19997;-89
2022/08/20 15:26:18;;;;;;;;;;;;;;;13.18;100.00;99661.59;6305327;22;19911;-91
2022/08/20 15:28:44;;;;;;;;;;;;;;;13.78;100.00;99655.59;6224994;22;20329;-88
2022/08/20 15:31:10;;;;;;;;;;;;;;;13.80;100.00;99656.34;6114470;23;19917;-92
2022/08/20 15:57:19;;;;;;;;;;;;;;;;;;;;;
2022/08/20 16:14:03;;;;;;;;;;;;;;;;;;;;;
2022/08/20 16:19:19;;;;;;;;;;;;;;;12.33;100.00;99658.19;6033072;23;19944;-94
2022/08/20 16:22:06;;;;;;;;;;;;;;;12.28;100.00;99665.53;6032579;23;19929;-89
2022/08/20 16:25:11;;;;;;;;;;;;;;;;;;;;;
2022/08/20 16:34:17;;;;;;;;;;;;;;;12.23;100.00;99662.28;6078096;23;19920;-93
2022/08/20 16:42:50;;;;;;;;;;;;;;;;;;;;;
2022/08/20 16:48:50;;;;;;;;;;;;;;;12.42;100.00;99652.41;5962645;23;19913;-87
2022/08/20 16:51:49;;;;;;;;;;;;;;;;;;;;;
2022/08/20 16:54:26;;;;;;;;;;;;;;;;;;;;;
2022/08/20 16:57:08;;;;;;;;;;;;;;;12.39;100.00;99668.50;6125343;23;19988;-93
2022/08/20 17:00:08;;;;;;;;;;;;;;;;;;;;;
2022/08/20 17:06:00;;;;;;;;;;;;;;;12.40;100.00;99659.59;6137434;23;20031;-95
2022/08/20 17:11:32;;;;;;;;;;;;;;;12.45;100.00;99654.88;6114568;22;19924;-91
2022/08/20 17:14:34;;;;;;;;;;;;;;;12.41;100.00;99655.13;6120660;23;19921;-91
2022/08/20 17:23:42;;;;;;;;;;;;;;;;;;;;;
2022/08/20 17:26:25;;;;;;;;;;;;;;;;;;;;;
2022/08/20 17:28:55;;;;;;;;;;;;;;;12.53;100.00;99652.69;6121877;23;19996;-93
2022/08/20 17:31:48;;;;;;;;;;;;;;;12.40;100.00;99654.28;6120708;23;19971;-91
2022/08/20 17:37:25;;;;;;;;;;;;;;;12.55;100.00;99660.56;6123134;23;19935;-92
2022/08/20 17:43:07;;;;;;;;;;;;;;;12.54;100.00;99662.38;6127947;23;20321;-92
2022/08/20 17:45:53;;;;;;;;;;;;;;;12.41;100.00;99663.94;6103867;23;19947;-94
2022/08/20 17:51:38;;;;;;;;;;;;;;;12.56;100.00;99670.28;6064692;23;19914;-91
2022/08/20 17:54:17;;;;;;;;;;;;;;;12.45;100.00;99668.19;6143602;23;19995;-90
2022/08/20 18:00:01;;;;;;;;;;;;;;;12.45;100.00;99665.53;6126809;23;19913;-91
2022/08/20 18:02:35;;;;;;;;;;;;;;;12.45;100.00;99668.19;6119578;23;19917;-90
2022/08/20 18:08:46;;;;;;;;;;;;;;;;;;;;;
2022/08/20 18:11:40;;;;;;;;;;;;;;;12.59;100.00;99669.22;6121638;22;19996;-93
2022/08/20 18:14:30;;;;;;;;;;;;;;;12.59;100.00;99671.91;6118661;23;19913;-93
2022/08/20 18:17:14;;;;;;;;;;;;;;;;;;;;;
2022/08/20 18:20:09;;;;;;;;;;;;;;;12.67;100.00;99672.38;6121786;23;19988;-89
2022/08/20 18:23:07;;;;;;;;;;;;;;;;;;;;;
2022/08/20 18:31:55;;;;;;;;;;;;;;;;;;;;;
2022/08/20 18:34:57;;;;;;;;;;;;;;;;;;;;;
2022/08/20 18:37:52;;;;;;;;;;;;;;;;;;;;;
2022/08/20 18:42:52;;;;;;;;;;;;;;;12.61;100.00;99681.50;6149893;23;19944;-89
2022/08/20 18:45:58;;;;;;;;;;;;;;;12.47;100.00;99687.53;6124809;23;19919;-87
2022/08/20 18:48:33;;;;;;;;;;;;;;;;;;;;;
2022/08/20 18:51:19;;;;;;;;;;;;;;;;;;;;;
2022/08/20 18:57:52;;;;;;;;;;;;;;;12.64;100.00;99685.81;6121192;23;19920;-89
2022/08/20 19:07:06;;;;;;;;;;;;;;;12.78;100.00;99688.59;6036389;23;20233;-94
2022/08/20 19:21:02;;;;;;;;;;;;;;;12.77;100.00;99710.81;6120882;23;20424;-92
2022/08/20 19:42:41;;;;;;;;;;;;;;;12.96;100.00;99733.75;6104371;23;20333;-86
2022/08/20 19:45:22;;;;;;;;;;;;;;;12.66;100.00;99729.13;6120258;23;19920;-89
2022/08/20 19:48:18;;;;;;;;;;;;;;;12.95;100.00;99724.06;6121530;23;20257;-92
2022/08/20 19:51:07;;;;;;;;;;;;;;;12.83;100.00;99717.59;6096299;23;19951;-91
2022/08/20 20:08:36;;;;;;;;;;;;;;;12.96;100.00;99741.75;6090412;23;19920;-87
2022/08/20 20:11:41;;;;;;;;;;;;;;;;;;;;;
2022/08/20 20:14:25;;;;;;;;;;;;;;;13.00;100.00;99735.31;6025045;23;19999;-87
2022/08/20 20:17:20;;;;;;;;;;;;;;;;;;;;;
2022/08/20 20:24:09;;;;;;;;;;;;;;;;;;;;;
2022/08/20 20:30:17;;;;;;;;;;;;;;;;;;;;;
2022/08/20 20:32:47;;;;;;;;;;;;;;;12.87;100.00;99754.56;6003404;23;19993;-90
2022/08/20 20:35:50;;;;;;;;;;;;;;;13.04;100.00;99750.16;6003088;23;20307;-85
2022/08/20 20:38:36;;;;;;;;;;;;;;;12.93;100.00;99749.88;6069505;23;19945;-90
2022/08/20 20:41:25;;;;;;;;;;;;;;;12.82;100.00;99753.09;6119124;23;19971;-89
2022/08/20 20:44:22;;;;;;;;;;;;;;;12.94;100.00;99747.16;6119661;23;19924;-87
2022/08/20 20:47:20;;;;;;;;;;;;;;;;;;;;;
2022/08/20 20:52:34;;;;;;;;;;;;;;;;;;;;;
2022/08/20 20:55:18;;;;;;;;;;;;;;;12.98;100.00;99746.03;6149097;23;19995;-89
2022/08/20 20:57:43;;;;;;;;;;;;;;;12.84;100.00;99752.09;6124137;23;20240;-86
2022/08/20 21:00:12;;;;;;;;;;;;;;;13.07;100.00;99742.03;6149895;23;19913;-86
2022/08/20 21:02:41;;;;;;;;;;;;;;;12.89;100.00;99749.16;6150133;23;20011;-86
2022/08/20 21:05:07;;;;;;;;;;;;;;;13.05;100.00;99746.53;6138037;23;19937;-90
2022/08/20 21:07:32;;;;;;;;;;;;;;;12.98;100.00;99750.50;6089315;23;19913;-88
2022/08/20 21:16:16;;;;;;;;;;;;;;;12.74;100.00;99753.50;6096610;22;19944;-87
2022/08/20 21:18:52;;;;;;;;;;;;;;;13.00;100.00;99751.25;6067251;23;19913;-90
2022/08/20 21:21:58;;;;;;;;;;;;;;;12.74;100.00;99761.47;6068767;23;19992;-94
2022/08/20 21:27:38;;;;;;;;;;;;;;;12.83;100.00;99774.28;6108582;23;19913;-86
2022/08/20 21:30:26;;;;;;;;;;;;;;;12.76;100.00;99769.38;6092140;23;19913;-91
2022/08/20 21:33:13;;;;;;;;;;;;;;;12.78;100.00;99768.38;6067414;23;19944;-92
2022/08/20 21:35:51;;;;;;;;;;;;;;;12.73;100.00;99770.38;6069305;23;20329;-89
2022/08/20 21:38:33;;;;;;;;;;;;;;;12.87;100.00;99764.34;6092560;23;19917;-95
2022/08/20 21:46:40;;;;;;;;;;;;;;;12.77;100.00;99755.16;6092995;23;19940;-89
2022/08/20 21:49:05;;;;;;;;;;;;;;;12.91;100.00;99755.28;6092469;23;20298;-87
2022/08/20 21:51:34;;;;;;;;;;;;;;;12.74;100.00;99757.97;6066873;23;19949;-91
2022/08/20 21:54:02;;;;;;;;;;;;;;;12.95;100.00;99756.81;6065558;23;19983;-86
2022/08/20 21:56:31;;;;;;;;;;;;;;;12.75;100.00;99762.31;6092990;23;19925;-86
2022/08/20 21:59:07;;;;;;;;;;;;;;;12.93;100.00;99757.84;6092097;23;19952;-90
2022/08/20 22:01:50;;;;;;;;;;;;;;;12.76;100.00;99762.25;6072190;23;19913;-90
2022/08/20 22:04:33;;;;;;;;;;;;;;;12.94;100.00;99755.13;6090311;23;19951;-90
2022/08/20 22:06:59;;;;;;;;;;;;;;;12.81;100.00;99754.91;6091664;23;19928;-89
2022/08/20 22:09:24;;;;;;;;;;;;;;;12.99;100.00;99744.25;6090343;23;19996;-87
2022/08/20 22:11:50;;;;;;;;;;;;;;;12.79;100.00;99755.91;6065189;23;19914;-88
2022/08/20 22:17:12;;;;;;;;;;;;;;;12.84;100.00;99749.44;6290358;22;19935;-93
2022/08/20 22:19:40;;;;;;;;;;;;;;;12.99;100.00;99752.22;6279851;22;19933;-86
2022/08/20 22:22:17;;;;;;;;;;;;;;;;;;;;;
2022/08/20 22:24:52;;;;;;;;;;;;;;;13.00;100.00;99756.56;6305904;22;19945;-87
2022/08/20 22:27:28;;;;;;;;;;;;;;;12.89;100.00;99758.03;6307100;22;20009;-92
2022/08/20 22:29:56;;;;;;;;;;;;;;;13.02;100.00;99750.25;6307620;22;19911;-89
2022/08/20 22:32:30;;;;;;;;;;;;;;;12.90;100.00;99758.88;6307693;22;19942;-89
2022/08/20 22:34:56;;;;;;;;;;;;;;;13.01;100.00;99755.66;6280159;22;20387;-87
2022/08/20 22:37:47;;;;;;;;;;;;;;;;;;;;;
2022/08/20 22:40:15;;;;;;;;;;;;;;;12.97;100.00;99756.75;6306792;22;19993;-91
2022/08/20 22:42:52;;;;;;;;;;;;;;;12.91;100.00;99757.94;6306943;22;19985;-90
2022/08/20 22:48:00;;;;;;;;;;;;;;;12.91;100.00;99755.28;6305305;22;20282;-86
2022/08/20 22:50:31;;;;;;;;;;;;;;;13.02;100.00;99750.25;6305536;22;19918;-88
2022/08/20 22:53:18;;;;;;;;;;;;;;;12.88;100.00;99752.78;6280302;22;19965;-87
2022/08/20 22:55:48;;;;;;;;;;;;;;;12.99;100.00;99757.53;6304927;22;19915;-90
2022/08/20 22:58:13;;;;;;;;;;;;;;;12.87;100.00;99757.22;6307698;22;19914;-85
2022/08/20 23:00:39;;;;;;;;;;;;;;;12.98;100.00;99755.81;6280004;22;19911;-84
2022/08/20 23:03:29;;;;;;;;;;;;;;;12.95;100.00;99756.81;6306444;22;20325;-88
2022/08/20 23:06:25;;;;;;;;;;;;;;;;;;;;;
2022/08/20 23:08:51;;;;;;;;;;;;;;;12.89;100.00;99760.69;6306876;22;19997;-87
2022/08/20 23:14:08;;;;;;;;;;;;;;;12.96;100.00;99753.22;6284502;22;19915;-86
2022/08/20 23:16:58;;;;;;;;;;;;;;;;;;;;;
2022/08/20 23:19:56;;;;;;;;;;;;;;;12.95;100.00;99756.81;6307112;22;19993;-90
2022/08/20 23:22:21;;;;;;;;;;;;;;;13.13;100.00;99757.66;6306036;22;19915;-85
2022/08/20 23:24:54;;;;;;;;;;;;;;;12.97;100.00;99748.75;6304770;22;19915;-87
2022/08/20 23:27:31;;;;;;;;;;;;;;;13.15;100.00;99753.09;6305021;22;19915;-89
2022/08/20 23:29:56;;;;;;;;;;;;;;;12.96;100.00;99752.38;6278310;22;19997;-85
2022/08/20 23:32:32;;;;;;;;;;;;;;;13.15;100.00;99753.09;6304035;22;19949;-86
2022/08/20 23:35:10;;;;;;;;;;;;;;;;;;;;;
2022/08/20 23:37:37;;;;;;;;;;;;;;;13.13;100.00;99755.00;6305930;22;19997;-89
2022/08/20 23:40:05;;;;;;;;;;;;;;;12.99;100.00;99757.53;6277944;22;19911;-85
2022/08/20 23:42:33;;;;;;;;;;;;;;;13.20;100.00;99750.19;6279014;22;19981;-87
2022/08/20 23:44:58;;;;;;;;;;;;;;;12.98;100.00;99748.69;6278518;22;19992;-89
2022/08/20 23:47:24;;;;;;;;;;;;;;;13.22;100.00;99749.16;6306462;22;20384;-84
2022/08/20 23:49:50;;;;;;;;;;;;;;;12.93;100.00;99740.09;6305862;22;20396;-83
2022/08/20 23:52:15;;;;;;;;;;;;;;;13.14;100.00;99735.41;6305653;22;19911;-87
2022/08/20 23:54:40;;;;;;;;;;;;;;;12.94;100.00;99740.94;6276705;22;20234;-83
2022/08/20 23:57:09;;;;;;;;;;;;;;;13.12;100.00;99741.78;6306275;22;19915;-86
2022/08/20 23:59:42;;;;;;;;;;;;;;;12.93;100.00;99742.75;6306392;22;19997;-87
